createdAt,value
2016-04-24T09:34:21.647Z,60
2016-04-24T09:35:21.790Z,60
2016-04-24T09:36:22.637Z,90
2016-04-24T09:37:21.733Z,110
2016-04-24T09:38:21.705Z,150
2016-04-24T09:39:21.769Z,85
2016-04-24T09:40:21.664Z,110
2016-04-24T09:41:21.619Z,155
2016-04-24T09:42:21.591Z,205
2016-04-24T09:43:21.594Z,260
2016-04-24T09:44:21.549Z,265
2016-04-24T09:45:21.505Z,255
2016-04-24T09:46:21.492Z,230
2016-04-24T09:47:21.464Z,210
2016-04-24T09:48:21.450Z,195
2016-04-24T09:49:21.438Z,170
2016-04-24T09:50:21.393Z,160
2016-04-24T09:51:21.349Z,155
2016-04-24T09:52:21.320Z,150
2016-04-24T09:53:21.308Z,150
2016-04-24T09:54:21.654Z,150
2016-04-24T09:55:21.251Z,150
2016-04-24T09:56:21.221Z,145
2016-04-24T09:57:21.177Z,145
2016-04-24T09:58:21.149Z,145
2016-04-24T09:59:21.151Z,140
2016-04-24T10:00:21.092Z,140
2016-04-24T10:01:21.095Z,145
2016-04-24T10:02:21.051Z,140
2016-04-24T10:03:21.084Z,140
2016-04-24T10:04:20.993Z,140
2016-04-24T10:05:20.965Z,140
2016-04-24T10:06:20.983Z,140
2016-04-24T10:07:20.861Z,140
2016-04-24T10:08:20.801Z,140
2016-04-24T10:09:20.773Z,140
2016-04-24T10:10:20.916Z,140
2016-04-24T10:11:20.809Z,140
2016-04-24T10:12:20.750Z,140
2016-04-24T10:13:20.752Z,140
2016-04-24T10:14:20.708Z,140
2016-04-24T10:15:20.680Z,140
2016-04-24T10:16:20.650Z,140
2016-04-24T10:17:20.622Z,145
2016-04-24T10:18:20.594Z,155
2016-04-24T10:19:20.565Z,145
2016-04-24T10:20:20.553Z,145
2016-04-24T10:21:20.539Z,145
2016-04-24T10:22:20.494Z,145
2016-04-24T10:23:20.294Z,145
2016-04-24T10:24:20.468Z,145
2016-04-24T10:25:20.144Z,165
2016-04-24T10:26:20.365Z,185
2016-04-24T10:27:20.337Z,175
2016-04-24T10:28:20.323Z,155
2016-04-24T10:29:20.311Z,155
2016-04-24T10:30:20.266Z,160
2016-04-24T10:31:20.238Z,170
2016-04-24T10:32:20.209Z,180
2016-04-24T10:33:20.181Z,190
2016-04-24T10:34:20.152Z,205
2016-04-24T10:35:20.124Z,190
2016-04-24T10:36:20.112Z,185
2016-04-24T10:37:20.067Z,205
2016-04-24T10:38:20.053Z,240
2016-04-24T10:39:19.775Z,280
2016-04-24T10:40:20.981Z,315
2016-04-24T10:41:19.967Z,345
2016-04-24T10:42:19.939Z,345
2016-04-24T10:43:19.911Z,365
2016-04-24T10:44:19.914Z,395
2016-04-24T10:45:19.870Z,410
2016-04-24T10:46:19.856Z,385
2016-04-24T10:47:19.655Z,360
2016-04-24T10:48:19.628Z,305
2016-04-24T10:49:19.755Z,315
2016-04-24T10:50:19.758Z,375
2016-04-24T10:51:19.698Z,345
2016-04-24T10:52:19.685Z,295
2016-04-24T10:53:19.657Z,250
2016-04-24T10:54:19.878Z,240
2016-04-24T10:55:20.302Z,260
2016-04-24T10:56:19.586Z,360
2016-04-24T10:57:19.558Z,425
2016-04-24T10:58:19.545Z,435
2016-04-24T10:59:19.508Z,445
2016-04-24T11:00:19.535Z,385
2016-04-24T11:01:19.548Z,335
2016-04-24T11:02:19.561Z,300
2016-04-24T11:03:19.573Z,265
2016-04-24T11:04:19.581Z,230
2016-04-24T11:05:19.583Z,190
2016-04-24T11:06:19.555Z,170
2016-04-24T11:07:19.509Z,150
2016-04-24T11:08:19.574Z,140
2016-04-24T11:09:21.121Z,135
2016-04-24T11:10:19.833Z,135
2016-04-24T11:11:19.481Z,135
2016-04-24T11:12:19.459Z,135
2016-04-24T11:13:19.482Z,140
2016-04-24T11:14:19.427Z,140
2016-04-24T11:15:19.401Z,140
2016-04-24T11:16:19.389Z,140
2016-04-24T11:17:19.378Z,145
2016-04-24T11:18:19.321Z,145
2016-04-24T11:19:19.309Z,150
2016-04-24T11:20:19.281Z,155
2016-04-24T11:21:19.268Z,165
2016-04-24T11:22:19.068Z,185
2016-04-24T11:23:19.212Z,195
2016-04-24T11:24:19.309Z,230
2016-04-24T11:25:19.046Z,270
2016-04-24T11:26:19.127Z,275
2016-04-24T11:27:19.100Z,265
2016-04-24T11:28:19.086Z,245
2016-04-24T11:29:19.059Z,235
2016-04-24T11:30:19.031Z,240
2016-04-24T11:31:18.986Z,275
2016-04-24T11:32:18.973Z,285
2016-04-24T11:33:18.944Z,300
2016-04-24T11:34:18.931Z,320
2016-04-24T11:35:18.902Z,345
2016-04-24T11:36:18.889Z,380
2016-04-24T11:37:18.830Z,425
2016-04-24T11:38:18.833Z,480
2016-04-24T11:39:20.569Z,505
2016-04-24T11:40:19.635Z,500
2016-04-24T11:41:18.762Z,385
2016-04-24T11:42:18.734Z,210
2016-04-24T11:43:18.706Z,110
2016-04-24T11:44:18.693Z,75
2016-04-24T11:45:18.663Z,95
2016-04-24T11:46:18.651Z,165
2016-04-24T11:47:18.607Z,210
2016-04-24T11:48:18.579Z,290
2016-04-24T11:49:18.549Z,390
2016-04-24T11:50:18.552Z,480
2016-04-24T11:51:18.509Z,515
2016-04-24T11:52:18.496Z,520
2016-04-24T11:53:18.451Z,520
2016-04-24T11:54:18.548Z,520
2016-04-24T11:55:18.582Z,525
2016-04-24T11:56:18.381Z,515
2016-04-24T11:57:18.384Z,520
2016-04-24T11:58:18.356Z,530
2016-04-24T11:59:18.311Z,530
2016-04-24T12:00:18.298Z,515
2016-04-24T12:01:18.253Z,480
2016-04-24T12:02:18.225Z,430
2016-04-24T12:03:18.197Z,380
2016-04-24T12:04:18.200Z,340
2016-04-24T12:05:18.171Z,320
2016-04-24T12:06:18.127Z,325
2016-04-24T12:07:18.114Z,355
2016-04-24T12:08:18.085Z,370
2016-04-24T12:09:19.103Z,355
2016-04-24T12:10:18.263Z,320
2016-04-24T12:11:18.015Z,275
2016-04-24T12:12:18.002Z,240
2016-04-24T12:13:17.974Z,220
2016-04-24T12:14:17.945Z,210
2016-04-24T12:15:17.916Z,210
2016-04-24T12:16:17.872Z,215
2016-04-24T12:17:17.891Z,215
2016-04-24T12:18:17.846Z,230
2016-04-24T12:19:17.849Z,265
2016-04-24T12:20:17.804Z,280
2016-04-24T12:21:17.792Z,275
2016-04-24T12:22:17.888Z,255
2016-04-24T12:23:17.719Z,230
2016-04-24T12:24:17.676Z,215
2016-04-24T12:25:18.131Z,215
2016-04-24T12:26:17.634Z,220
2016-04-24T12:27:17.606Z,230
2016-04-24T12:28:17.592Z,245
2016-04-24T12:29:17.548Z,255
2016-04-24T12:30:17.520Z,260
2016-04-24T12:31:17.522Z,265
2016-04-24T12:32:17.478Z,275
2016-04-24T12:33:17.465Z,285
2016-04-24T12:34:17.436Z,290
2016-04-24T12:35:17.408Z,285
2016-04-24T12:36:17.364Z,275
2016-04-24T12:37:17.366Z,260
2016-04-24T12:38:17.353Z,245
2016-04-24T12:39:17.653Z,220
2016-04-24T12:40:17.671Z,200
2016-04-24T12:41:17.252Z,180
2016-04-24T12:42:17.224Z,165
2016-04-24T12:43:17.194Z,150
2016-04-24T12:44:17.197Z,140
2016-04-24T12:45:17.138Z,135
2016-04-24T12:46:17.110Z,130
2016-04-24T12:47:17.097Z,130
2016-04-24T12:48:17.068Z,125
2016-04-24T12:49:17.054Z,125
2016-04-24T12:50:17.011Z,125
2016-04-24T12:51:17.029Z,125
2016-04-24T12:52:16.985Z,125
2016-04-24T12:53:16.950Z,125
2016-04-24T12:54:16.921Z,125
2016-04-24T12:55:17.267Z,130
2016-04-24T12:56:16.863Z,135
2016-04-24T12:57:16.852Z,140
2016-04-24T12:58:16.822Z,140
2016-04-24T12:59:16.778Z,150
2016-04-24T13:00:16.749Z,155
2016-04-24T13:01:16.737Z,180
2016-04-24T13:02:16.708Z,220
2016-04-24T13:03:16.696Z,270
2016-04-24T13:04:16.651Z,220
2016-04-24T13:05:16.669Z,235
2016-04-24T13:06:16.453Z,305
2016-04-24T13:07:16.581Z,300
2016-04-24T13:08:16.552Z,260
2016-04-24T13:09:16.523Z,225
2016-04-24T13:10:16.652Z,245
2016-04-24T13:11:16.482Z,205
2016-04-24T13:12:16.454Z,155
2016-04-24T13:13:16.472Z,145
2016-04-24T13:14:16.397Z,145
2016-04-24T13:15:16.367Z,155
2016-04-24T13:16:16.339Z,150
2016-04-24T13:17:16.311Z,140
2016-04-24T13:18:16.283Z,155
2016-04-24T13:19:16.316Z,165
2016-04-24T13:20:16.256Z,140
2016-04-24T13:21:16.212Z,120
2016-04-24T13:22:16.184Z,120
2016-04-24T13:23:16.171Z,130
2016-04-24T13:24:16.142Z,125
2016-04-24T13:25:16.067Z,125
2016-04-24T13:26:16.086Z,145
2016-04-24T13:27:16.072Z,150
2016-04-24T13:28:16.044Z,165
2016-04-24T13:29:16.094Z,195
2016-04-24T13:30:19.643Z,215
2016-04-24T13:31:15.958Z,265
2016-04-24T13:32:15.930Z,270
2016-04-24T13:33:15.916Z,240
2016-04-24T13:34:15.887Z,225
2016-04-24T13:35:15.874Z,270
2016-04-24T13:36:15.831Z,290
2016-04-24T13:37:15.818Z,310
2016-04-24T13:38:15.789Z,295
2016-04-24T13:39:15.760Z,265
2016-04-24T13:40:16.185Z,245
2016-04-24T13:41:15.610Z,275
2016-04-24T13:42:15.690Z,320
2016-04-24T13:43:15.662Z,320
2016-04-24T13:44:15.633Z,300
2016-04-24T13:45:15.621Z,255
2016-04-24T13:46:15.576Z,205
2016-04-24T13:47:15.548Z,175
2016-04-24T13:48:15.550Z,155
2016-04-24T13:49:15.506Z,135
2016-04-24T13:50:15.494Z,130
2016-04-24T13:51:15.465Z,130
2016-04-24T13:52:15.436Z,130
2016-04-24T13:53:15.408Z,130
2016-04-24T13:54:15.380Z,125
2016-04-24T13:55:15.350Z,125
2016-04-24T13:56:15.338Z,125
2016-04-24T13:57:15.309Z,125
2016-04-24T13:58:15.280Z,120
2016-04-24T13:59:15.252Z,125
2016-04-24T14:00:15.239Z,125
2016-04-24T14:01:15.210Z,125
2016-04-24T14:02:15.182Z,125
2016-04-24T14:03:15.154Z,130
2016-04-24T14:04:15.140Z,130
2016-04-24T14:05:15.127Z,125
2016-04-24T14:06:15.082Z,135
2016-04-24T14:07:15.070Z,140
2016-04-24T14:08:15.026Z,160
2016-04-24T14:09:14.998Z,175
2016-04-24T14:10:15.782Z,220
2016-04-24T14:11:15.862Z,275
2016-04-24T14:12:14.928Z,320
2016-04-24T14:13:14.931Z,350
2016-04-24T14:14:14.871Z,370
2016-04-24T14:15:14.857Z,385
2016-04-24T14:16:14.834Z,420
2016-04-24T14:17:14.664Z,425
2016-04-24T14:18:15.073Z,440
2016-04-24T14:19:20.030Z,425
2016-04-24T14:20:14.454Z,385
2016-04-24T14:21:14.722Z,365
2016-04-24T14:22:14.678Z,240
2016-04-24T14:23:14.650Z,140
2016-04-24T14:24:14.637Z,100
2016-04-24T14:25:15.421Z,100
2016-04-24T14:26:14.783Z,130
2016-04-24T14:27:14.552Z,155
2016-04-24T14:28:14.523Z,160
2016-04-24T14:29:14.525Z,205
2016-04-24T14:30:14.480Z,230
2016-04-24T14:31:14.452Z,255
2016-04-24T14:32:14.423Z,240
2016-04-24T14:33:14.410Z,225
2016-04-24T14:34:14.382Z,210
2016-04-24T14:35:14.354Z,200
2016-04-24T14:36:14.325Z,190
2016-04-24T14:37:14.325Z,180
2016-04-24T14:38:14.378Z,175
2016-04-24T14:39:14.238Z,160
2016-04-24T14:40:14.521Z,150
2016-04-24T14:41:15.246Z,145
2016-04-24T14:42:14.183Z,140
2016-04-24T14:43:14.154Z,135
2016-04-24T14:44:14.125Z,130
2016-04-24T14:45:14.097Z,120
2016-04-24T14:46:14.084Z,120
2016-04-24T14:47:14.055Z,120
2016-04-24T14:48:14.026Z,120
2016-04-24T14:49:14.014Z,115
2016-04-24T14:50:13.970Z,115
2016-04-24T14:51:13.956Z,120
2016-04-24T14:52:13.928Z,115
2016-04-24T14:53:13.884Z,115
2016-04-24T14:54:13.856Z,115
2016-04-24T14:55:15.217Z,115
2016-04-24T14:56:13.658Z,110
2016-04-24T14:57:13.801Z,110
2016-04-24T14:58:13.772Z,105
2016-04-24T14:59:13.728Z,100
2016-04-24T15:00:13.716Z,110
2016-04-24T15:01:13.734Z,95
2016-04-24T15:02:13.674Z,95
2016-04-24T15:03:13.630Z,95
2016-04-24T15:04:13.602Z,90
2016-04-24T15:05:13.604Z,90
2016-04-24T15:06:13.560Z,90
2016-04-24T15:07:13.532Z,90
2016-04-24T15:08:13.518Z,90
2016-04-24T15:09:13.474Z,85
2016-04-24T15:10:13.399Z,85
2016-04-24T15:11:13.713Z,90
2016-04-24T15:12:13.404Z,90
2016-04-24T15:13:13.360Z,90
2016-04-24T15:14:13.347Z,90
2016-04-24T15:15:13.318Z,95
2016-04-24T15:16:13.306Z,100
2016-04-24T15:17:13.261Z,100
2016-04-24T15:18:13.232Z,100
2016-04-24T15:19:13.204Z,105
2016-04-24T15:20:13.192Z,110
2016-04-24T15:21:13.162Z,115
2016-04-24T15:22:12.868Z,120
2016-04-24T15:23:13.105Z,115
2016-04-24T15:24:13.077Z,115
2016-04-24T15:25:13.751Z,120
2016-04-24T15:26:12.864Z,120
2016-04-24T15:27:13.007Z,120
2016-04-24T15:28:12.994Z,120
2016-04-24T15:29:12.950Z,120
2016-04-24T15:30:12.921Z,125
2016-04-24T15:31:12.892Z,130
2016-04-24T15:32:12.849Z,135
2016-04-24T15:33:12.836Z,145
2016-04-24T15:34:12.807Z,155
2016-04-24T15:35:12.794Z,170
2016-04-24T15:36:12.781Z,180
2016-04-24T15:37:12.737Z,200
2016-04-24T15:38:12.724Z,220
2016-04-24T15:39:12.663Z,220
2016-04-24T15:40:12.838Z,215
2016-04-24T15:41:12.810Z,205
2016-04-24T15:42:12.594Z,210
2016-04-24T15:43:12.565Z,225
2016-04-24T15:44:12.552Z,250
2016-04-24T15:45:12.524Z,250
2016-04-24T15:46:12.479Z,235
2016-04-24T15:47:12.467Z,215
2016-04-24T15:48:12.437Z,215
2016-04-24T15:49:12.410Z,210
2016-04-24T15:50:12.381Z,215
2016-04-24T15:51:12.368Z,195
2016-04-24T15:52:12.339Z,185
2016-04-24T15:53:12.311Z,190
2016-04-24T15:54:12.298Z,220
2016-04-24T15:55:14.398Z,250
2016-04-24T15:56:14.462Z,250
2016-04-24T15:57:12.653Z,255
2016-04-24T15:58:12.215Z,260
2016-04-24T15:59:13.068Z,235
2016-04-24T16:00:12.118Z,215
2016-04-24T16:01:12.105Z,205
2016-04-24T16:02:12.076Z,190
2016-04-24T16:03:12.048Z,180
2016-04-24T16:04:12.051Z,150
2016-04-24T16:05:11.991Z,115
2016-04-24T16:06:11.962Z,95
2016-04-24T16:07:11.956Z,80
2016-04-24T16:08:11.928Z,75
2016-04-24T16:09:11.899Z,70
2016-04-24T16:10:13.652Z,70
2016-04-24T16:11:11.827Z,70
2016-04-24T16:12:11.829Z,75
2016-04-24T16:13:11.816Z,75
2016-04-24T16:14:11.772Z,80
2016-04-24T16:15:11.758Z,85
2016-04-24T16:16:11.730Z,85
2016-04-24T16:17:11.686Z,85
2016-04-24T16:18:11.688Z,90
2016-04-24T16:19:11.644Z,95
2016-04-24T16:20:11.616Z,95
2016-04-24T16:21:11.588Z,100
2016-04-24T16:22:11.559Z,115
2016-04-24T16:23:11.577Z,125
2016-04-24T16:24:11.517Z,135
2016-04-24T16:25:11.489Z,145
2016-04-24T16:26:11.867Z,140
2016-04-24T16:27:11.432Z,135
2016-04-24T16:28:11.403Z,130
2016-04-24T16:29:11.375Z,130
2016-04-24T16:30:11.361Z,135
2016-04-24T16:31:11.349Z,145
2016-04-24T16:32:11.321Z,145
2016-04-24T16:33:11.182Z,135
2016-04-24T16:34:11.263Z,125
2016-04-24T16:35:11.234Z,100
2016-04-24T16:36:11.222Z,95
2016-04-24T16:37:11.053Z,90
2016-04-24T16:38:11.149Z,90
2016-04-24T16:39:11.120Z,90
2016-04-24T16:40:11.108Z,90
2016-04-24T16:41:10.657Z,85
2016-04-24T16:42:11.050Z,95
2016-04-24T16:43:11.022Z,90
2016-04-24T16:44:11.009Z,90
2016-04-24T16:45:10.996Z,85
2016-04-24T16:46:10.936Z,85
2016-04-24T16:47:10.908Z,85
2016-04-24T16:48:10.895Z,80
2016-04-24T16:49:10.882Z,90
2016-04-24T16:50:10.837Z,105
2016-04-24T16:51:10.810Z,115
2016-04-24T16:52:10.796Z,110
2016-04-24T16:53:10.752Z,110
2016-04-24T16:54:10.754Z,100
2016-04-24T16:55:10.726Z,95
2016-04-24T16:56:10.260Z,95
2016-04-24T16:57:10.669Z,105
2016-04-24T16:58:10.624Z,105
2016-04-24T16:59:10.612Z,100
2016-04-24T17:00:10.598Z,95
2016-04-24T17:01:10.555Z,100
2016-04-24T17:02:10.542Z,90
2016-04-24T17:03:10.513Z,85
2016-04-24T17:04:10.469Z,80
2016-04-24T17:05:10.440Z,80
2016-04-24T17:06:10.443Z,85
2016-04-24T17:07:10.415Z,85
2016-04-24T17:08:10.370Z,90
2016-04-24T17:09:10.342Z,90
2016-04-24T17:10:10.314Z,95
2016-04-24T17:11:09.878Z,90
2016-04-24T17:12:10.256Z,90
2016-04-24T17:13:10.228Z,90
2016-04-24T17:14:10.200Z,85
2016-04-24T17:15:10.170Z,80
2016-04-24T17:16:10.142Z,75
2016-04-24T17:17:10.129Z,75
2016-04-24T17:18:10.085Z,75
2016-04-24T17:19:10.072Z,80
2016-04-24T17:20:10.043Z,85
2016-04-24T17:21:10.030Z,90
2016-04-24T17:22:09.986Z,100
2016-04-24T17:23:09.958Z,110
2016-04-24T17:24:09.913Z,110
2016-04-24T17:25:09.901Z,100
2016-04-24T17:26:10.153Z,85
2016-04-24T17:27:09.843Z,75
2016-04-24T17:28:09.846Z,70
2016-04-24T17:29:09.787Z,70
2016-04-24T17:30:09.773Z,70
2016-04-24T17:31:09.745Z,65
2016-04-24T17:32:09.732Z,65
2016-04-24T17:33:09.672Z,65
2016-04-24T17:34:09.675Z,65
2016-04-24T17:35:09.646Z,60
2016-04-24T17:36:09.602Z,60
2016-04-24T17:37:09.589Z,60
2016-04-24T17:38:09.545Z,60
2016-04-24T17:39:09.531Z,60
2016-04-24T17:40:09.504Z,60
2016-04-24T17:41:09.319Z,55
2016-04-24T17:42:09.447Z,55
2016-04-24T17:43:09.417Z,55
2016-04-24T17:44:09.405Z,55
2016-04-24T17:45:09.375Z,55
2016-04-24T17:46:09.332Z,55
2016-04-24T17:47:09.319Z,55
2016-04-24T17:48:09.291Z,60
2016-04-24T17:49:09.262Z,60
2016-04-24T17:50:09.218Z,60
2016-04-24T17:51:09.205Z,60
2016-04-24T17:52:09.176Z,55
2016-04-24T17:53:09.148Z,50
2016-04-24T17:54:09.104Z,50
2016-04-24T17:55:09.107Z,45
2016-04-24T17:56:09.062Z,45
2016-04-24T17:57:09.049Z,45
2016-04-24T17:58:09.004Z,40
2016-04-24T17:59:08.992Z,40
2016-04-24T18:00:08.948Z,40
2016-04-24T18:01:08.919Z,40
2016-04-24T18:02:08.890Z,40
2016-04-24T18:03:08.878Z,40
2016-04-24T18:04:08.849Z,35
2016-04-24T18:05:08.820Z,35
2016-04-24T18:06:08.839Z,35
2016-04-24T18:07:08.764Z,35
2016-04-24T18:08:08.734Z,35
2016-04-24T18:09:08.706Z,30
2016-04-24T18:10:08.693Z,30
2016-04-24T18:11:08.681Z,30
2016-04-24T18:12:08.637Z,30
2016-04-24T18:13:08.592Z,30
2016-04-24T18:14:08.564Z,25
2016-04-24T18:15:08.550Z,25
2016-04-24T18:16:08.506Z,25
2016-04-24T18:17:08.353Z,25
2016-04-24T18:18:08.449Z,25
2016-04-24T18:19:08.421Z,20
2016-04-24T18:20:08.408Z,20
2016-04-24T18:21:08.395Z,20
2016-04-24T18:22:08.350Z,20
2016-04-24T18:23:08.369Z,15
2016-04-24T18:24:08.310Z,15
2016-04-24T18:25:08.280Z,15
2016-04-24T18:26:08.221Z,15
2016-04-24T18:27:08.224Z,15
2016-04-24T18:28:08.038Z,15
2016-04-24T18:29:08.166Z,10
2016-04-24T18:30:08.154Z,10
2016-04-24T18:31:08.125Z,10
2016-04-24T18:32:08.081Z,10
2016-04-24T18:33:08.036Z,10
2016-04-24T18:34:08.024Z,10
2016-04-24T18:35:07.979Z,10
2016-04-24T18:36:07.967Z,10
2016-04-24T18:37:07.922Z,5
2016-04-24T18:38:07.910Z,5
2016-04-24T18:39:07.881Z,5
2016-04-24T18:40:07.853Z,5
2016-04-24T18:41:08.073Z,5
2016-04-24T18:42:07.795Z,5
2016-04-24T18:43:07.751Z,5
2016-04-24T18:44:07.739Z,5
2016-04-24T18:45:07.709Z,5
2016-04-24T18:46:07.681Z,0
2016-04-24T18:47:07.667Z,0
2016-04-24T18:48:07.639Z,0
2016-04-24T18:49:07.595Z,0
2016-04-24T18:50:07.567Z,0
2016-04-24T18:51:07.538Z,0
2016-04-24T18:52:07.494Z,0
2016-04-24T18:53:07.481Z,0
2016-04-24T18:54:07.469Z,0
2016-04-24T18:55:07.439Z,0
2016-04-24T18:56:07.864Z,0
2016-04-24T18:57:07.366Z,0
2016-04-24T18:58:07.338Z,0
2016-04-24T18:59:07.325Z,0
2016-04-24T19:00:07.297Z,0
2016-04-24T19:01:07.268Z,0
2016-04-24T19:02:07.224Z,0
2016-04-24T19:03:07.195Z,0
2016-04-24T19:04:07.167Z,0
2016-04-24T19:05:07.154Z,0
2016-04-24T19:06:07.140Z,0
2016-04-24T19:07:07.113Z,0
2016-04-24T19:08:07.053Z,0
2016-04-24T19:09:07.040Z,0
2016-04-24T19:10:06.996Z,0
2016-04-24T19:11:07.404Z,0
2016-04-24T19:12:07.235Z,0
2016-04-24T19:13:06.925Z,0
2016-04-24T19:14:06.913Z,0
2016-04-24T19:15:06.852Z,0
2016-04-24T19:16:06.825Z,0
2016-04-24T19:17:06.812Z,0
2016-04-24T19:18:06.783Z,0
2016-04-24T19:19:06.786Z,0
2016-04-24T19:20:06.756Z,0
2016-04-24T19:21:06.697Z,0
2016-04-24T19:22:06.669Z,0
2016-04-24T19:23:06.631Z,0
2016-04-24T19:24:06.588Z,0
2016-04-24T19:25:06.559Z,0
2016-04-24T19:26:06.873Z,0
2016-04-24T19:27:06.407Z,0
2016-04-24T19:28:06.488Z,0
2016-04-24T19:29:06.460Z,0
2016-04-24T19:30:06.432Z,0
2016-04-24T19:31:06.418Z,0
2016-04-24T19:32:06.373Z,0
2016-04-24T19:33:06.331Z,0
2016-04-24T19:34:06.301Z,0
2016-04-24T19:35:06.289Z,0
2016-04-24T19:36:06.244Z,0
2016-04-24T19:37:06.216Z,0
2016-04-24T19:38:06.195Z,0
2016-04-24T19:39:06.150Z,0
2016-04-24T19:40:06.122Z,0
2016-04-24T19:41:06.109Z,0
2016-04-24T19:42:07.471Z,0
2016-04-24T19:43:06.068Z,0
2016-04-24T19:44:06.024Z,0
2016-04-24T19:45:06.027Z,0
2016-04-24T19:46:05.966Z,0
2016-04-24T19:47:05.969Z,0
2016-04-24T19:48:05.909Z,0
2016-04-24T19:49:05.865Z,0
2016-04-24T19:50:05.837Z,0
2016-04-24T19:51:05.808Z,0
2016-04-24T19:52:05.780Z,0
2016-04-24T19:53:05.766Z,0
2016-04-24T19:54:05.738Z,0
2016-04-24T19:55:05.693Z,0
2016-04-24T19:56:06.040Z,0
2016-04-24T19:57:05.651Z,0
2016-04-24T19:58:05.609Z,0
2016-04-24T19:59:05.564Z,0
2016-04-24T20:00:05.534Z,0
2016-04-24T20:01:05.506Z,0
2016-04-24T20:02:05.478Z,0
2016-04-24T20:03:05.465Z,0
2016-04-24T20:04:05.453Z,0
2016-04-24T20:05:04.845Z,0
2016-04-24T20:06:05.379Z,0
2016-04-24T20:07:05.409Z,0
2016-04-24T20:08:05.424Z,0
2016-04-24T20:09:05.439Z,0
2016-04-24T20:10:05.437Z,0
2016-04-24T20:11:05.311Z,0
2016-04-24T20:12:06.642Z,0
2016-04-24T20:13:05.426Z,0
2016-04-24T20:14:05.429Z,0
2016-04-24T20:15:05.385Z,0
2016-04-24T20:16:05.384Z,0
2016-04-24T20:17:05.377Z,0
2016-04-24T20:18:05.338Z,0
2016-04-24T20:19:05.313Z,0
2016-04-24T20:20:05.291Z,0
2016-04-24T20:21:05.267Z,0
2016-04-24T20:22:05.241Z,0
2016-04-24T20:23:05.230Z,0
2016-04-24T20:24:05.188Z,0
2016-04-24T20:25:05.162Z,0
2016-04-24T20:26:06.197Z,0
2016-04-24T20:27:04.889Z,0
2016-04-24T20:28:05.064Z,0
2016-04-24T20:29:05.036Z,0
2016-04-24T20:30:05.024Z,0
2016-04-24T20:31:04.981Z,0
2016-04-24T20:32:04.967Z,0
2016-04-24T20:33:04.923Z,0
2016-04-24T20:34:04.894Z,0
2016-04-24T20:35:04.866Z,0
2016-04-24T20:36:04.838Z,0
2016-04-24T20:37:04.810Z,0
2016-04-24T20:38:04.781Z,0
2016-04-24T20:39:04.753Z,0
2016-04-24T20:40:04.724Z,0
2016-04-24T20:41:04.789Z,0
2016-04-24T20:42:04.573Z,0
2016-04-24T20:43:04.638Z,0
2016-04-24T20:44:04.625Z,0
2016-04-24T20:45:04.597Z,0
2016-04-24T20:46:04.552Z,0
2016-04-24T20:47:04.524Z,0
2016-04-24T20:48:04.496Z,0
2016-04-24T20:49:04.451Z,0
2016-04-24T20:50:04.439Z,0
2016-04-24T20:51:04.394Z,0
2016-04-24T20:52:04.382Z,0
2016-04-24T20:53:04.352Z,0
2016-04-24T20:54:04.341Z,0
2016-04-24T20:55:04.296Z,0
2016-04-24T20:56:04.252Z,0
2016-04-24T20:57:04.238Z,0
2016-04-24T20:58:04.210Z,0
2016-04-24T20:59:04.525Z,0
2016-04-24T21:00:03.996Z,0
2016-04-24T21:01:04.156Z,0
2016-04-24T21:02:04.096Z,0
2016-04-24T21:03:04.067Z,0
2016-04-24T21:04:04.023Z,0
2016-04-24T21:05:03.995Z,0
2016-04-24T21:06:03.965Z,0
2016-04-24T21:07:03.922Z,0
2016-04-24T21:08:03.925Z,0
2016-04-24T21:09:03.864Z,0
2016-04-24T21:10:03.851Z,0
2016-04-24T21:11:03.823Z,0
2016-04-24T21:12:03.639Z,0
2016-04-24T21:13:03.750Z,0
2016-04-24T21:14:03.003Z,0
2016-04-24T21:15:03.708Z,0
2016-04-24T21:16:03.664Z,0
2016-04-24T21:17:03.636Z,0
2016-04-24T21:18:03.608Z,0
2016-04-24T21:19:03.563Z,0
2016-04-24T21:20:03.550Z,0
2016-04-24T21:21:03.521Z,0
2016-04-24T21:22:03.509Z,0
2016-04-24T21:23:03.466Z,0
2016-04-24T21:24:03.436Z,0
2016-04-24T21:25:03.391Z,0
2016-04-24T21:26:03.363Z,0
2016-04-24T21:27:03.678Z,0
2016-04-24T21:28:03.321Z,0
2016-04-24T21:29:03.294Z,0
2016-04-24T21:30:03.265Z,0
2016-04-24T21:31:03.236Z,0
2016-04-24T21:32:03.177Z,0
2016-04-24T21:33:03.148Z,0
2016-04-24T21:34:03.134Z,0
2016-04-24T21:35:03.106Z,0
2016-04-24T21:36:03.078Z,0
2016-04-24T21:37:03.034Z,0
2016-04-24T21:38:03.020Z,0
2016-04-24T21:39:02.992Z,0
2016-04-24T21:40:03.979Z,0
2016-04-24T21:41:02.920Z,0
2016-04-24T21:42:02.906Z,0
2016-04-24T21:43:02.847Z,0
2016-04-24T21:44:02.834Z,0
2016-04-24T21:45:02.805Z,0
2016-04-24T21:46:02.761Z,0
2016-04-24T21:47:02.733Z,0
2016-04-24T21:48:02.703Z,0
2016-04-24T21:49:02.691Z,0
2016-04-24T21:50:02.647Z,0
2016-04-24T21:51:02.619Z,0
2016-04-24T21:52:02.606Z,0
2016-04-24T21:53:02.561Z,0
2016-04-24T21:54:02.532Z,0
2016-04-24T21:55:02.504Z,0
2016-04-24T21:56:02.491Z,0
2016-04-24T21:57:02.477Z,0
2016-04-24T21:58:02.418Z,0
2016-04-24T21:59:02.374Z,0
2016-04-24T22:00:02.329Z,0
2016-04-24T22:01:02.317Z,0
2016-04-24T22:02:02.273Z,0
2016-04-24T22:03:02.260Z,0
2016-04-24T22:04:02.215Z,0
2016-04-24T22:05:02.203Z,0
2016-04-24T22:06:02.158Z,0
2016-04-24T22:07:02.130Z,0
2016-04-24T22:08:07.367Z,0
2016-04-24T22:09:04.792Z,0
2016-04-24T22:10:07.997Z,0
2016-04-24T22:11:06.235Z,0
2016-04-24T22:12:02.706Z,0
2016-04-24T22:13:01.943Z,0
2016-04-24T22:14:01.945Z,0
2016-04-24T22:15:01.887Z,0
2016-04-24T22:16:01.858Z,0
2016-04-24T22:17:01.829Z,0
2016-04-24T22:18:01.800Z,0
2016-04-24T22:19:01.772Z,0
2016-04-24T22:20:01.758Z,0
2016-04-24T22:21:01.715Z,0
2016-04-24T22:22:01.670Z,0
2016-04-24T22:23:01.658Z,0
2016-04-24T22:24:01.629Z,0
2016-04-24T22:25:01.585Z,0
2016-04-24T22:26:01.556Z,0
2016-04-24T22:27:01.324Z,0
2016-04-24T22:28:01.780Z,0
2016-04-24T22:29:01.471Z,0
2016-04-24T22:30:01.426Z,0
2016-04-24T22:31:01.413Z,0
2016-04-24T22:32:01.369Z,0
2016-04-24T22:33:01.341Z,0
2016-04-24T22:34:01.312Z,0
2016-04-24T22:35:01.299Z,0
2016-04-24T22:36:01.254Z,0
2016-04-24T22:37:01.211Z,0
2016-04-24T22:38:01.182Z,0
2016-04-24T22:39:01.154Z,0
2016-04-24T22:40:01.157Z,0
2016-04-24T22:41:01.096Z,0
2016-04-24T22:42:00.990Z,0
2016-04-24T22:43:00.884Z,0
2016-04-24T22:44:01.026Z,0
2016-04-24T22:45:00.951Z,0
2016-04-24T22:46:00.922Z,0
2016-04-24T22:47:00.925Z,0
2016-04-24T22:48:00.897Z,0
2016-04-24T22:49:00.837Z,0
2016-04-24T22:50:00.839Z,0
2016-04-24T22:51:00.795Z,0
2016-04-24T22:52:00.751Z,0
2016-04-24T22:53:00.723Z,0
2016-04-24T22:54:00.725Z,0
2016-04-24T22:55:00.666Z,0
2016-04-24T22:56:00.636Z,0
2016-04-24T22:57:00.921Z,0
2016-04-24T22:58:00.533Z,0
2016-04-24T22:59:00.552Z,0
2016-04-24T23:00:00.522Z,0
2016-04-24T23:01:00.479Z,0
2016-04-24T23:02:00.449Z,0
2016-04-24T23:03:00.422Z,0
2016-04-24T23:04:00.393Z,0
2016-04-24T23:05:00.365Z,0
2016-04-24T23:06:00.335Z,0
2016-04-24T23:07:00.307Z,0
2016-04-24T23:08:00.262Z,0
2016-04-24T23:09:00.235Z,0
2016-04-24T23:10:00.221Z,0
2016-04-24T23:11:00.177Z,0
2016-04-24T23:12:00.351Z,0
2016-04-24T23:13:00.386Z,0
2016-04-24T23:14:00.092Z,0
2016-04-24T23:15:00.048Z,0
2016-04-24T23:16:00.003Z,0
2016-04-24T23:16:59.990Z,0
2016-04-24T23:17:59.961Z,0
2016-04-24T23:18:59.934Z,0
2016-04-24T23:19:59.905Z,0
2016-04-24T23:20:59.861Z,0
2016-04-24T23:21:59.831Z,0
2016-04-24T23:22:59.820Z,0
2016-04-24T23:23:59.775Z,0
2016-04-24T23:24:59.747Z,0
2016-04-24T23:25:59.717Z,0
2016-04-24T23:27:00.392Z,0
2016-04-24T23:27:59.644Z,0
2016-04-24T23:28:59.632Z,0
2016-04-24T23:29:59.603Z,0
2016-04-24T23:30:59.560Z,0
2016-04-24T23:31:59.530Z,0
2016-04-24T23:32:59.502Z,0
2016-04-24T23:33:59.474Z,0
2016-04-24T23:34:59.446Z,0
2016-04-24T23:35:59.416Z,0
2016-04-24T23:36:59.372Z,0
2016-04-24T23:37:59.374Z,0
2016-04-24T23:38:59.315Z,0
2016-04-24T23:39:59.287Z,0
2016-04-24T23:40:59.274Z,0
2016-04-24T23:41:59.089Z,0
2016-04-24T23:43:00.138Z,0
2016-04-24T23:43:59.157Z,0
2016-04-24T23:44:59.128Z,0
2016-04-24T23:45:59.100Z,0